sensor_id;sensor_type;location;lat;lon;timestamp;temperature;humidity
23143;DHT22;11740;51.168;4.112;2023-08-24T00:01:39;22.20;1.00
23143;DHT22;11740;51.168;4.112;2023-08-24T00:04:06;22.20;1.00
23143;DHT22;11740;51.168;4.112;2023-08-24T00:06:34;22.20;1.00
23143;DHT22;11740;51.168;4.112;2023-08-24T00:09:01;22.10;1.00
23143;DHT22;11740;51.168;4.112;2023-08-24T00:11:28;22.10;1.00
23143;DHT22;11740;51.168;4.112;2023-08-24T00:13:55;22.00;1.00
23143;DHT22;11740;51.168;4.112;2023-08-24T00:16:22;22.00;1.00
23143;DHT22;11740;51.168;4.112;2023-08-24T00:18:49;22.00;1.00
23143;DHT22;11740;51.168;4.112;2023-08-24T00:21:16;22.00;1.00
23143;DHT22;11740;51.168;4.112;2023-08-24T00:23:50;22.00;1.00
23143;DHT22;11740;51.168;4.112;2023-08-24T00:26:17;21.90;1.00
23143;DHT22;11740;51.168;4.112;2023-08-24T00:28:44;21.90;1.00
23143;DHT22;11740;51.168;4.112;2023-08-24T00:31:12;21.80;1.00
23143;DHT22;11740;51.168;4.112;2023-08-24T00:33:41;21.80;1.00
23143;DHT22;11740;51.168;4.112;2023-08-24T00:36:08;21.80;1.00
23143;DHT22;11740;51.168;4.112;2023-08-24T00:38:35;21.80;1.00
23143;DHT22;11740;51.168;4.112;2023-08-24T00:41:03;21.90;1.00
23143;DHT22;11740;51.168;4.112;2023-08-24T00:43:30;21.80;1.00
23143;DHT22;11740;51.168;4.112;2023-08-24T00:46:00;21.70;1.00
23143;DHT22;11740;51.168;4.112;2023-08-24T00:48:28;21.70;1.00
23143;DHT22;11740;51.168;4.112;2023-08-24T00:50:58;21.70;1.00
23143;DHT22;11740;51.168;4.112;2023-08-24T00:53:27;21.70;1.00
23143;DHT22;11740;51.168;4.112;2023-08-24T00:55:55;21.70;1.00
23143;DHT22;11740;51.168;4.112;2023-08-24T00:58:23;21.70;1.00
23143;DHT22;11740;51.168;4.112;2023-08-24T01:00:52;21.60;1.00
23143;DHT22;11740;51.168;4.112;2023-08-24T01:03:22;21.60;1.00
23143;DHT22;11740;51.168;4.112;2023-08-24T01:05:51;21.60;1.00
23143;DHT22;11740;51.168;4.112;2023-08-24T01:08:19;21.50;1.00
23143;DHT22;11740;51.168;4.112;2023-08-24T01:11:00;21.50;1.00
23143;DHT22;11740;51.168;4.112;2023-08-24T01:13:51;21.50;1.00
23143;DHT22;11740;51.168;4.112;2023-08-24T01:16:29;21.40;1.00
23143;DHT22;11740;51.168;4.112;2023-08-24T01:18:59;21.40;1.00
23143;DHT22;11740;51.168;4.112;2023-08-24T01:21:26;21.40;1.00
23143;DHT22;11740;51.168;4.112;2023-08-24T01:24:44;21.40;1.00
23143;DHT22;11740;51.168;4.112;2023-08-24T01:27:12;21.40;1.00
23143;DHT22;11740;51.168;4.112;2023-08-24T01:29:40;21.40;1.00
23143;DHT22;11740;51.168;4.112;2023-08-24T01:32:10;21.40;1.00
23143;DHT22;11740;51.168;4.112;2023-08-24T01:34:40;21.40;1.00
23143;DHT22;11740;51.168;4.112;2023-08-24T01:37:07;21.30;27.80
23143;DHT22;11740;51.168;4.112;2023-08-24T01:39:54;21.30;9.00
23143;DHT22;11740;51.168;4.112;2023-08-24T01:42:31;21.30;3.60
23143;DHT22;11740;51.168;4.112;2023-08-24T01:45:03;21.30;1.00
23143;DHT22;11740;51.168;4.112;2023-08-24T01:47:34;21.30;46.90
23143;DHT22;11740;51.168;4.112;2023-08-24T01:50:02;21.20;99.90
23143;DHT22;11740;51.168;4.112;2023-08-24T01:52:31;21.30;99.90
23143;DHT22;11740;51.168;4.112;2023-08-24T01:55:01;21.20;99.90
23143;DHT22;11740;51.168;4.112;2023-08-24T01:57:28;21.10;1.00
23143;DHT22;11740;51.168;4.112;2023-08-24T01:59:55;21.10;1.00
23143;DHT22;11740;51.168;4.112;2023-08-24T02:02:24;21.00;1.00
23143;DHT22;11740;51.168;4.112;2023-08-24T02:04:51;21.00;1.00
23143;DHT22;11740;51.168;4.112;2023-08-24T02:07:18;21.00;50.90
23143;DHT22;11740;51.168;4.112;2023-08-24T02:09:45;21.00;1.00
23143;DHT22;11740;51.168;4.112;2023-08-24T02:12:12;21.00;1.00
23143;DHT22;11740;51.168;4.112;2023-08-24T02:14:39;21.00;1.00
23143;DHT22;11740;51.168;4.112;2023-08-24T02:17:06;20.90;25.40
23143;DHT22;11740;51.168;4.112;2023-08-24T02:19:33;20.90;1.00
23143;DHT22;11740;51.168;4.112;2023-08-24T02:21:59;20.90;20.30
23143;DHT22;11740;51.168;4.112;2023-08-24T02:24:26;20.90;99.90
23143;DHT22;11740;51.168;4.112;2023-08-24T02:26:53;20.80;99.90
23143;DHT22;11740;51.168;4.112;2023-08-24T02:29:20;20.80;99.90
23143;DHT22;11740;51.168;4.112;2023-08-24T02:31:49;20.70;99.90
23143;DHT22;11740;51.168;4.112;2023-08-24T02:34:18;20.70;99.90
23143;DHT22;11740;51.168;4.112;2023-08-24T02:36:45;20.80;99.90
23143;DHT22;11740;51.168;4.112;2023-08-24T02:39:12;20.80;1.00
23143;DHT22;11740;51.168;4.112;2023-08-24T02:41:39;20.70;1.00
23143;DHT22;11740;51.168;4.112;2023-08-24T02:44:06;20.70;1.00
23143;DHT22;11740;51.168;4.112;2023-08-24T02:46:33;20.60;1.00
23143;DHT22;11740;51.168;4.112;2023-08-24T02:49:00;20.60;1.00
23143;DHT22;11740;51.168;4.112;2023-08-24T02:51:27;20.60;1.00
23143;DHT22;11740;51.168;4.112;2023-08-24T02:53:54;20.50;1.00
23143;DHT22;11740;51.168;4.112;2023-08-24T02:56:20;20.50;1.00
23143;DHT22;11740;51.168;4.112;2023-08-24T02:58:47;20.40;36.80
23143;DHT22;11740;51.168;4.112;2023-08-24T03:01:14;20.40;37.10
23143;DHT22;11740;51.168;4.112;2023-08-24T03:03:41;20.40;99.90
23143;DHT22;11740;51.168;4.112;2023-08-24T03:06:08;20.40;1.00
23143;DHT22;11740;51.168;4.112;2023-08-24T03:08:36;20.30;37.20
23143;DHT22;11740;51.168;4.112;2023-08-24T03:11:04;20.40;1.00
23143;DHT22;11740;51.168;4.112;2023-08-24T03:13:31;20.40;1.00
23143;DHT22;11740;51.168;4.112;2023-08-24T03:16:04;20.40;1.00
23143;DHT22;11740;51.168;4.112;2023-08-24T03:18:31;20.30;1.00
23143;DHT22;11740;51.168;4.112;2023-08-24T03:20:59;20.30;1.00
23143;DHT22;11740;51.168;4.112;2023-08-24T03:23:26;20.30;1.00
23143;DHT22;11740;51.168;4.112;2023-08-24T03:25:53;20.30;1.00
23143;DHT22;11740;51.168;4.112;2023-08-24T03:28:21;20.30;1.00
23143;DHT22;11740;51.168;4.112;2023-08-24T03:30:50;20.30;1.00
23143;DHT22;11740;51.168;4.112;2023-08-24T03:33:18;20.30;1.00
23143;DHT22;11740;51.168;4.112;2023-08-24T03:35:45;20.30;99.90
23143;DHT22;11740;51.168;4.112;2023-08-24T03:38:14;20.20;1.00
23143;DHT22;11740;51.168;4.112;2023-08-24T03:40:41;20.20;99.90
23143;DHT22;11740;51.168;4.112;2023-08-24T03:43:07;20.20;99.90
23143;DHT22;11740;51.168;4.112;2023-08-24T03:45:34;20.20;99.90
23143;DHT22;11740;51.168;4.112;2023-08-24T03:48:01;20.20;99.90
23143;DHT22;11740;51.168;4.112;2023-08-24T03:50:28;20.20;1.50
23143;DHT22;11740;51.168;4.112;2023-08-24T03:52:55;20.20;50.80
23143;DHT22;11740;51.168;4.112;2023-08-24T03:55:23;20.20;1.00
23143;DHT22;11740;51.168;4.112;2023-08-24T03:57:50;20.20;1.00
23143;DHT22;11740;51.168;4.112;2023-08-24T04:00:18;20.10;1.00
23143;DHT22;11740;51.168;4.112;2023-08-24T04:02:45;20.10;1.00
23143;DHT22;11740;51.168;4.112;2023-08-24T04:05:12;20.10;74.10
23143;DHT22;11740;51.168;4.112;2023-08-24T04:07:39;20.00;1.00
23143;DHT22;11740;51.168;4.112;2023-08-24T04:10:08;20.00;1.00
23143;DHT22;11740;51.168;4.112;2023-08-24T04:12:36;20.00;1.00
23143;DHT22;11740;51.168;4.112;2023-08-24T04:15:03;19.90;99.90
23143;DHT22;11740;51.168;4.112;2023-08-24T04:17:31;19.90;99.90
23143;DHT22;11740;51.168;4.112;2023-08-24T04:19:58;19.90;99.90
23143;DHT22;11740;51.168;4.112;2023-08-24T04:22:25;19.80;99.90
23143;DHT22;11740;51.168;4.112;2023-08-24T04:24:52;19.90;1.00
23143;DHT22;11740;51.168;4.112;2023-08-24T04:27:19;19.80;99.90
23143;DHT22;11740;51.168;4.112;2023-08-24T04:29:46;19.80;7.50
23143;DHT22;11740;51.168;4.112;2023-08-24T04:32:13;19.70;99.90
23143;DHT22;11740;51.168;4.112;2023-08-24T04:34:39;19.70;99.90
23143;DHT22;11740;51.168;4.112;2023-08-24T04:37:07;19.70;99.90
23143;DHT22;11740;51.168;4.112;2023-08-24T04:39:34;19.60;1.00
23143;DHT22;11740;51.168;4.112;2023-08-24T04:42:01;19.60;1.00
23143;DHT22;11740;51.168;4.112;2023-08-24T04:44:29;19.50;1.00
23143;DHT22;11740;51.168;4.112;2023-08-24T04:46:56;19.50;1.00
23143;DHT22;11740;51.168;4.112;2023-08-24T04:49:23;19.50;1.00
23143;DHT22;11740;51.168;4.112;2023-08-24T04:51:50;19.40;1.00
23143;DHT22;11740;51.168;4.112;2023-08-24T04:54:17;19.30;99.90
23143;DHT22;11740;51.168;4.112;2023-08-24T04:56:46;19.30;1.00
23143;DHT22;11740;51.168;4.112;2023-08-24T04:59:13;19.40;1.00
23143;DHT22;11740;51.168;4.112;2023-08-24T05:01:40;19.30;1.00
23143;DHT22;11740;51.168;4.112;2023-08-24T05:04:06;19.30;1.00
23143;DHT22;11740;51.168;4.112;2023-08-24T05:06:33;19.30;1.00
23143;DHT22;11740;51.168;4.112;2023-08-24T05:09:00;19.20;99.90
23143;DHT22;11740;51.168;4.112;2023-08-24T05:11:28;19.20;99.90
23143;DHT22;11740;51.168;4.112;2023-08-24T05:13:57;19.20;1.00
23143;DHT22;11740;51.168;4.112;2023-08-24T05:16:24;19.20;1.00
23143;DHT22;11740;51.168;4.112;2023-08-24T05:18:51;19.20;11.30
23143;DHT22;11740;51.168;4.112;2023-08-24T05:21:18;19.20;16.30
23143;DHT22;11740;51.168;4.112;2023-08-24T05:23:45;19.20;99.90
23143;DHT22;11740;51.168;4.112;2023-08-24T05:26:12;19.20;99.90
23143;DHT22;11740;51.168;4.112;2023-08-24T05:28:39;19.10;99.90
23143;DHT22;11740;51.168;4.112;2023-08-24T05:31:06;19.20;99.90
23143;DHT22;11740;51.168;4.112;2023-08-24T05:33:33;19.20;99.90
23143;DHT22;11740;51.168;4.112;2023-08-24T05:36:00;19.20;99.90
23143;DHT22;11740;51.168;4.112;2023-08-24T05:38:27;19.20;99.90
23143;DHT22;11740;51.168;4.112;2023-08-24T05:40:54;19.20;99.90
23143;DHT22;11740;51.168;4.112;2023-08-24T05:43:21;19.10;99.90
23143;DHT22;11740;51.168;4.112;2023-08-24T05:45:48;19.20;99.90
23143;DHT22;11740;51.168;4.112;2023-08-24T05:48:15;19.20;99.90
23143;DHT22;11740;51.168;4.112;2023-08-24T05:50:44;19.20;99.90
23143;DHT22;11740;51.168;4.112;2023-08-24T05:53:14;19.20;1.00
23143;DHT22;11740;51.168;4.112;2023-08-24T05:55:41;19.20;1.00
23143;DHT22;11740;51.168;4.112;2023-08-24T05:58:08;19.20;1.00
23143;DHT22;11740;51.168;4.112;2023-08-24T06:00:35;19.20;1.00
23143;DHT22;11740;51.168;4.112;2023-08-24T06:03:02;19.30;1.00
23143;DHT22;11740;51.168;4.112;2023-08-24T06:05:31;19.30;1.00
23143;DHT22;11740;51.168;4.112;2023-08-24T06:07:58;19.30;1.00
23143;DHT22;11740;51.168;4.112;2023-08-24T06:10:25;19.40;1.00
23143;DHT22;11740;51.168;4.112;2023-08-24T06:12:54;19.40;1.00
23143;DHT22;11740;51.168;4.112;2023-08-24T06:15:21;19.40;1.00
23143;DHT22;11740;51.168;4.112;2023-08-24T06:17:51;19.50;1.00
23143;DHT22;11740;51.168;4.112;2023-08-24T06:20:19;19.50;1.00
23143;DHT22;11740;51.168;4.112;2023-08-24T06:22:47;19.50;1.00
23143;DHT22;11740;51.168;4.112;2023-08-24T06:25:14;19.60;82.20
23143;DHT22;11740;51.168;4.112;2023-08-24T06:27:41;19.60;58.60
23143;DHT22;11740;51.168;4.112;2023-08-24T06:30:08;19.60;1.00
23143;DHT22;11740;51.168;4.112;2023-08-24T06:32:35;19.70;1.00
23143;DHT22;11740;51.168;4.112;2023-08-24T06:35:04;19.70;1.00
23143;DHT22;11740;51.168;4.112;2023-08-24T06:37:32;19.70;1.00
23143;DHT22;11740;51.168;4.112;2023-08-24T06:39:59;19.70;1.00
23143;DHT22;11740;51.168;4.112;2023-08-24T06:42:27;19.80;1.00
23143;DHT22;11740;51.168;4.112;2023-08-24T06:44:54;19.80;1.00
23143;DHT22;11740;51.168;4.112;2023-08-24T06:47:21;19.90;1.00
23143;DHT22;11740;51.168;4.112;2023-08-24T06:49:48;19.90;1.00
23143;DHT22;11740;51.168;4.112;2023-08-24T06:52:14;20.00;60.40
23143;DHT22;11740;51.168;4.112;2023-08-24T06:54:41;20.00;1.00
23143;DHT22;11740;51.168;4.112;2023-08-24T06:57:08;20.10;36.80
23143;DHT22;11740;51.168;4.112;2023-08-24T06:59:36;20.20;1.00
23143;DHT22;11740;51.168;4.112;2023-08-24T07:02:03;20.20;1.00
23143;DHT22;11740;51.168;4.112;2023-08-24T07:04:31;20.20;99.90
23143;DHT22;11740;51.168;4.112;2023-08-24T07:06:58;20.30;1.00
23143;DHT22;11740;51.168;4.112;2023-08-24T07:09:25;20.30;1.00
23143;DHT22;11740;51.168;4.112;2023-08-24T07:11:52;20.30;1.00
23143;DHT22;11740;51.168;4.112;2023-08-24T07:14:19;20.30;1.00
23143;DHT22;11740;51.168;4.112;2023-08-24T07:16:46;20.40;1.00
23143;DHT22;11740;51.168;4.112;2023-08-24T07:19:13;20.50;1.00
23143;DHT22;11740;51.168;4.112;2023-08-24T07:21:41;20.50;1.00
23143;DHT22;11740;51.168;4.112;2023-08-24T07:24:08;20.50;1.00
23143;DHT22;11740;51.168;4.112;2023-08-24T07:26:34;20.60;37.30
23143;DHT22;11740;51.168;4.112;2023-08-24T07:29:01;20.60;1.00
23143;DHT22;11740;51.168;4.112;2023-08-24T07:31:28;20.60;1.00
23143;DHT22;11740;51.168;4.112;2023-08-24T07:33:55;20.60;1.00
23143;DHT22;11740;51.168;4.112;2023-08-24T07:36:22;20.70;99.90
23143;DHT22;11740;51.168;4.112;2023-08-24T07:38:49;20.70;99.90
23143;DHT22;11740;51.168;4.112;2023-08-24T07:41:16;20.70;97.50
23143;DHT22;11740;51.168;4.112;2023-08-24T07:43:45;20.80;13.80
23143;DHT22;11740;51.168;4.112;2023-08-24T07:46:12;20.80;99.90
23143;DHT22;11740;51.168;4.112;2023-08-24T07:48:39;20.90;37.60
23143;DHT22;11740;51.168;4.112;2023-08-24T07:51:07;20.90;99.90
23143;DHT22;11740;51.168;4.112;2023-08-24T07:53:34;20.90;1.00
23143;DHT22;11740;51.168;4.112;2023-08-24T07:56:01;21.00;1.00
23143;DHT22;11740;51.168;4.112;2023-08-24T07:58:28;21.00;1.00
23143;DHT22;11740;51.168;4.112;2023-08-24T08:00:59;21.10;1.00
23143;DHT22;11740;51.168;4.112;2023-08-24T08:03:26;21.10;1.00
23143;DHT22;11740;51.168;4.112;2023-08-24T08:05:54;21.10;1.00
23143;DHT22;11740;51.168;4.112;2023-08-24T08:08:21;21.00;1.00
23143;DHT22;11740;51.168;4.112;2023-08-24T08:11:00;21.10;99.90
23143;DHT22;11740;51.168;4.112;2023-08-24T08:13:29;21.10;99.90
23143;DHT22;11740;51.168;4.112;2023-08-24T08:16:05;21.10;9.10
23143;DHT22;11740;51.168;4.112;2023-08-24T08:18:34;21.20;1.00
23143;DHT22;11740;51.168;4.112;2023-08-24T08:21:09;21.20;1.00
23143;DHT22;11740;51.168;4.112;2023-08-24T08:23:39;21.20;1.00
23143;DHT22;11740;51.168;4.112;2023-08-24T08:26:07;21.20;99.90
23143;DHT22;11740;51.168;4.112;2023-08-24T08:28:36;21.20;1.00
23143;DHT22;11740;51.168;4.112;2023-08-24T08:31:03;21.20;13.20
23143;DHT22;11740;51.168;4.112;2023-08-24T08:33:32;21.30;1.00
23143;DHT22;11740;51.168;4.112;2023-08-24T08:35:59;21.30;1.00
23143;DHT22;11740;51.168;4.112;2023-08-24T08:38:26;21.40;1.00
23143;DHT22;11740;51.168;4.112;2023-08-24T08:40:56;21.40;1.00
23143;DHT22;11740;51.168;4.112;2023-08-24T08:43:29;21.40;1.00
23143;DHT22;11740;51.168;4.112;2023-08-24T08:45:58;21.50;1.00
23143;DHT22;11740;51.168;4.112;2023-08-24T08:48:28;21.40;99.90
23143;DHT22;11740;51.168;4.112;2023-08-24T08:50:58;21.40;7.10
23143;DHT22;11740;51.168;4.112;2023-08-24T08:53:25;21.40;1.00
23143;DHT22;11740;51.168;4.112;2023-08-24T08:55:53;21.40;2.90
23143;DHT22;11740;51.168;4.112;2023-08-24T08:58:21;21.50;1.00
23143;DHT22;11740;51.168;4.112;2023-08-24T09:00:49;21.50;99.90
23143;DHT22;11740;51.168;4.112;2023-08-24T09:03:18;21.50;99.90
23143;DHT22;11740;51.168;4.112;2023-08-24T09:05:46;21.50;1.00
23143;DHT22;11740;51.168;4.112;2023-08-24T09:08:19;21.50;1.00
23143;DHT22;11740;51.168;4.112;2023-08-24T09:10:46;21.50;1.00
23143;DHT22;11740;51.168;4.112;2023-08-24T09:13:14;21.50;1.00
23143;DHT22;11740;51.168;4.112;2023-08-24T09:15:41;21.60;96.50
23143;DHT22;11740;51.168;4.112;2023-08-24T09:18:07;21.60;99.90
23143;DHT22;11740;51.168;4.112;2023-08-24T09:20:35;21.50;1.00
23143;DHT22;11740;51.168;4.112;2023-08-24T09:23:02;21.50;40.30
23143;DHT22;11740;51.168;4.112;2023-08-24T09:25:30;21.50;1.00
23143;DHT22;11740;51.168;4.112;2023-08-24T09:28:01;21.50;20.30
23143;DHT22;11740;51.168;4.112;2023-08-24T09:30:37;21.60;99.90
23143;DHT22;11740;51.168;4.112;2023-08-24T09:33:09;21.50;99.90
23143;DHT22;11740;51.168;4.112;2023-08-24T09:35:37;21.50;1.00
23143;DHT22;11740;51.168;4.112;2023-08-24T09:38:20;21.50;99.90
23143;DHT22;11740;51.168;4.112;2023-08-24T09:40:53;21.50;99.90
23143;DHT22;11740;51.168;4.112;2023-08-24T09:43:22;21.40;99.90
23143;DHT22;11740;51.168;4.112;2023-08-24T09:45:51;21.40;99.90
23143;DHT22;11740;51.168;4.112;2023-08-24T09:48:19;21.40;99.90
23143;DHT22;11740;51.168;4.112;2023-08-24T09:50:48;21.40;1.00
23143;DHT22;11740;51.168;4.112;2023-08-24T09:53:23;21.50;1.00
23143;DHT22;11740;51.168;4.112;2023-08-24T09:55:54;21.50;1.00
23143;DHT22;11740;51.168;4.112;2023-08-24T09:58:28;21.50;1.00
23143;DHT22;11740;51.168;4.112;2023-08-24T10:00:56;21.50;1.00
23143;DHT22;11740;51.168;4.112;2023-08-24T10:03:27;21.50;1.00
23143;DHT22;11740;51.168;4.112;2023-08-24T10:05:55;21.50;99.90
23143;DHT22;11740;51.168;4.112;2023-08-24T10:08:37;21.50;1.00
23143;DHT22;11740;51.168;4.112;2023-08-24T10:11:06;21.50;1.00
23143;DHT22;11740;51.168;4.112;2023-08-24T10:13:45;21.50;14.70
23143;DHT22;11740;51.168;4.112;2023-08-24T10:16:17;21.50;99.90
23143;DHT22;11740;51.168;4.112;2023-08-24T10:18:45;21.50;99.90
23143;DHT22;11740;51.168;4.112;2023-08-24T10:21:14;21.50;99.90
23143;DHT22;11740;51.168;4.112;2023-08-24T10:23:42;21.40;99.90
23143;DHT22;11740;51.168;4.112;2023-08-24T10:26:10;21.50;99.90
23143;DHT22;11740;51.168;4.112;2023-08-24T10:28:39;21.50;99.90
23143;DHT22;11740;51.168;4.112;2023-08-24T10:31:07;21.50;99.90
23143;DHT22;11740;51.168;4.112;2023-08-24T10:33:34;21.50;1.00
23143;DHT22;11740;51.168;4.112;2023-08-24T10:36:06;21.50;99.90
23143;DHT22;11740;51.168;4.112;2023-08-24T10:38:40;21.50;99.90
23143;DHT22;11740;51.168;4.112;2023-08-24T10:41:10;21.60;1.00
23143;DHT22;11740;51.168;4.112;2023-08-24T10:43:48;21.60;1.00
23143;DHT22;11740;51.168;4.112;2023-08-24T10:46:16;21.60;1.00
23143;DHT22;11740;51.168;4.112;2023-08-24T10:53:51;21.70;1.00
23143;DHT22;11740;51.168;4.112;2023-08-24T10:56:20;21.80;1.00
23143;DHT22;11740;51.168;4.112;2023-08-24T10:59:11;21.90;1.00
23143;DHT22;11740;51.168;4.112;2023-08-24T11:01:43;22.00;1.00
23143;DHT22;11740;51.168;4.112;2023-08-24T11:04:21;22.00;1.00
23143;DHT22;11740;51.168;4.112;2023-08-24T11:06:58;22.10;1.00
23143;DHT22;11740;51.168;4.112;2023-08-24T11:09:45;22.20;1.00
23143;DHT22;11740;51.168;4.112;2023-08-24T11:12:15;22.40;99.90
23143;DHT22;11740;51.168;4.112;2023-08-24T11:14:52;22.50;1.00
23143;DHT22;11740;51.168;4.112;2023-08-24T11:17:30;22.60;85.80
23143;DHT22;11740;51.168;4.112;2023-08-24T11:20:00;22.70;1.00
23143;DHT22;11740;51.168;4.112;2023-08-24T11:22:31;22.70;99.90
23143;DHT22;11740;51.168;4.112;2023-08-24T11:24:59;22.90;1.00
23143;DHT22;11740;51.168;4.112;2023-08-24T11:27:26;23.00;1.00
23143;DHT22;11740;51.168;4.112;2023-08-24T11:29:59;23.10;1.00
23143;DHT22;11740;51.168;4.112;2023-08-24T11:32:26;23.20;99.90
23143;DHT22;11740;51.168;4.112;2023-08-24T11:34:54;23.20;99.90
23143;DHT22;11740;51.168;4.112;2023-08-24T11:37:21;23.20;1.00
23143;DHT22;11740;51.168;4.112;2023-08-24T11:39:48;23.20;19.50
23143;DHT22;11740;51.168;4.112;2023-08-24T11:42:15;23.20;1.00
23143;DHT22;11740;51.168;4.112;2023-08-24T11:44:46;23.30;1.00
23143;DHT22;11740;51.168;4.112;2023-08-24T11:47:13;23.30;1.00
23143;DHT22;11740;51.168;4.112;2023-08-24T11:49:41;23.40;1.00
23143;DHT22;11740;51.168;4.112;2023-08-24T11:52:08;23.40;1.00
23143;DHT22;11740;51.168;4.112;2023-08-24T11:54:36;23.30;1.00
23143;DHT22;11740;51.168;4.112;2023-08-24T11:57:06;23.30;1.00
23143;DHT22;11740;51.168;4.112;2023-08-24T11:59:36;23.30;99.90
23143;DHT22;11740;51.168;4.112;2023-08-24T12:02:04;23.40;99.90
23143;DHT22;11740;51.168;4.112;2023-08-24T12:04:39;23.30;99.90
23143;DHT22;11740;51.168;4.112;2023-08-24T12:07:12;23.40;99.90
23143;DHT22;11740;51.168;4.112;2023-08-24T12:09:40;23.40;99.90
23143;DHT22;11740;51.168;4.112;2023-08-24T12:12:15;23.40;99.90
23143;DHT22;11740;51.168;4.112;2023-08-24T12:14:43;23.40;99.90
23143;DHT22;11740;51.168;4.112;2023-08-24T12:17:11;23.50;22.90
23143;DHT22;11740;51.168;4.112;2023-08-24T12:19:58;23.50;55.50
23143;DHT22;11740;51.168;4.112;2023-08-24T12:22:27;23.50;1.00
23143;DHT22;11740;51.168;4.112;2023-08-24T12:24:54;23.50;72.10
23143;DHT22;11740;51.168;4.112;2023-08-24T12:27:25;23.60;1.20
23143;DHT22;11740;51.168;4.112;2023-08-24T12:29:53;23.60;1.00
23143;DHT22;11740;51.168;4.112;2023-08-24T12:32:21;23.60;1.00
23143;DHT22;11740;51.168;4.112;2023-08-24T12:34:52;23.70;1.00
23143;DHT22;11740;51.168;4.112;2023-08-24T12:37:19;23.70;99.90
23143;DHT22;11740;51.168;4.112;2023-08-24T12:39:46;23.70;99.90
23143;DHT22;11740;51.168;4.112;2023-08-24T12:42:13;23.60;99.90
23143;DHT22;11740;51.168;4.112;2023-08-24T12:44:40;23.60;99.90
23143;DHT22;11740;51.168;4.112;2023-08-24T12:47:07;23.60;99.90
23143;DHT22;11740;51.168;4.112;2023-08-24T12:49:34;23.60;99.90
23143;DHT22;11740;51.168;4.112;2023-08-24T12:52:01;23.60;99.90
23143;DHT22;11740;51.168;4.112;2023-08-24T12:54:29;23.60;99.90
23143;DHT22;11740;51.168;4.112;2023-08-24T12:56:56;23.60;99.90
23143;DHT22;11740;51.168;4.112;2023-08-24T12:59:23;23.60;1.00
23143;DHT22;11740;51.168;4.112;2023-08-24T13:01:50;23.70;99.90
23143;DHT22;11740;51.168;4.112;2023-08-24T13:04:17;23.70;99.90
23143;DHT22;11740;51.168;4.112;2023-08-24T13:06:44;23.70;99.90
23143;DHT22;11740;51.168;4.112;2023-08-24T13:09:11;23.80;99.90
23143;DHT22;11740;51.168;4.112;2023-08-24T13:11:38;23.80;99.90
23143;DHT22;11740;51.168;4.112;2023-08-24T13:14:05;23.80;99.90
23143;DHT22;11740;51.168;4.112;2023-08-24T13:16:32;23.80;99.90
23143;DHT22;11740;51.168;4.112;2023-08-24T13:18:59;23.80;99.90
23143;DHT22;11740;51.168;4.112;2023-08-24T13:21:26;23.80;99.90
23143;DHT22;11740;51.168;4.112;2023-08-24T13:23:53;23.80;99.90
23143;DHT22;11740;51.168;4.112;2023-08-24T13:26:21;23.80;99.90
23143;DHT22;11740;51.168;4.112;2023-08-24T13:28:50;23.90;99.90
23143;DHT22;11740;51.168;4.112;2023-08-24T13:31:18;23.90;99.90
23143;DHT22;11740;51.168;4.112;2023-08-24T13:33:45;23.90;99.90
23143;DHT22;11740;51.168;4.112;2023-08-24T13:36:12;23.90;99.90
23143;DHT22;11740;51.168;4.112;2023-08-24T13:38:39;23.90;99.90
23143;DHT22;11740;51.168;4.112;2023-08-24T13:41:06;24.00;38.60
23143;DHT22;11740;51.168;4.112;2023-08-24T13:43:33;24.00;23.70
23143;DHT22;11740;51.168;4.112;2023-08-24T13:46:00;24.00;1.70
23143;DHT22;11740;51.168;4.112;2023-08-24T13:48:30;24.00;1.00
23143;DHT22;11740;51.168;4.112;2023-08-24T13:51:00;24.00;1.00
23143;DHT22;11740;51.168;4.112;2023-08-24T13:53:28;24.10;14.30
23143;DHT22;11740;51.168;4.112;2023-08-24T13:55:55;24.10;1.00
23143;DHT22;11740;51.168;4.112;2023-08-24T13:58:22;24.10;1.00
23143;DHT22;11740;51.168;4.112;2023-08-24T14:00:55;24.20;1.00
23143;DHT22;11740;51.168;4.112;2023-08-24T14:03:23;24.30;1.00
23143;DHT22;11740;51.168;4.112;2023-08-24T14:05:55;24.40;1.00
23143;DHT22;11740;51.168;4.112;2023-08-24T14:08:23;24.40;1.00
23143;DHT22;11740;51.168;4.112;2023-08-24T14:10:52;24.40;1.00
23143;DHT22;11740;51.168;4.112;2023-08-24T14:13:20;24.50;1.00
23143;DHT22;11740;51.168;4.112;2023-08-24T14:15:49;24.50;1.00
23143;DHT22;11740;51.168;4.112;2023-08-24T14:18:17;24.50;1.00
23143;DHT22;11740;51.168;4.112;2023-08-24T14:20:44;24.50;1.00
23143;DHT22;11740;51.168;4.112;2023-08-24T14:23:11;24.50;99.90
23143;DHT22;11740;51.168;4.112;2023-08-24T14:25:38;24.50;99.90
23143;DHT22;11740;51.168;4.112;2023-08-24T14:28:05;24.50;99.90
23143;DHT22;11740;51.168;4.112;2023-08-24T14:30:35;24.50;99.90
23143;DHT22;11740;51.168;4.112;2023-08-24T14:33:03;24.60;99.90
23143;DHT22;11740;51.168;4.112;2023-08-24T14:35:30;24.50;99.90
23143;DHT22;11740;51.168;4.112;2023-08-24T14:37:59;24.60;99.90
23143;DHT22;11740;51.168;4.112;2023-08-24T14:40:26;24.50;99.90
23143;DHT22;11740;51.168;4.112;2023-08-24T14:42:53;24.50;99.90
23143;DHT22;11740;51.168;4.112;2023-08-24T14:45:21;24.50;99.90
23143;DHT22;11740;51.168;4.112;2023-08-24T14:47:48;24.50;99.90
23143;DHT22;11740;51.168;4.112;2023-08-24T14:50:15;24.50;99.90
23143;DHT22;11740;51.168;4.112;2023-08-24T14:52:42;24.50;99.90
23143;DHT22;11740;51.168;4.112;2023-08-24T14:55:09;24.50;99.90
23143;DHT22;11740;51.168;4.112;2023-08-24T14:57:36;24.40;1.00
23143;DHT22;11740;51.168;4.112;2023-08-24T15:00:04;24.50;99.90
23143;DHT22;11740;51.168;4.112;2023-08-24T15:02:32;24.50;16.20
23143;DHT22;11740;51.168;4.112;2023-08-24T15:04:59;24.60;99.90
23143;DHT22;11740;51.168;4.112;2023-08-24T15:07:27;24.70;99.90
23143;DHT22;11740;51.168;4.112;2023-08-24T15:09:54;24.70;59.80
23143;DHT22;11740;51.168;4.112;2023-08-24T15:12:21;24.70;99.90
23143;DHT22;11740;51.168;4.112;2023-08-24T15:15:01;24.70;1.00
23143;DHT22;11740;51.168;4.112;2023-08-24T15:17:30;24.60;1.00
23143;DHT22;11740;51.168;4.112;2023-08-24T15:19:59;24.70;66.10
23143;DHT22;11740;51.168;4.112;2023-08-24T15:22:26;24.70;4.40
23143;DHT22;11740;51.168;4.112;2023-08-24T15:24:55;24.70;1.00
23143;DHT22;11740;51.168;4.112;2023-08-24T15:27:23;24.70;1.00
23143;DHT22;11740;51.168;4.112;2023-08-24T15:29:50;24.70;1.00
23143;DHT22;11740;51.168;4.112;2023-08-24T15:32:20;24.70;1.00
23143;DHT22;11740;51.168;4.112;2023-08-24T15:34:48;24.70;1.00
23143;DHT22;11740;51.168;4.112;2023-08-24T15:37:15;24.70;1.00
23143;DHT22;11740;51.168;4.112;2023-08-24T15:39:42;24.70;99.90
23143;DHT22;11740;51.168;4.112;2023-08-24T15:42:09;24.70;99.90
23143;DHT22;11740;51.168;4.112;2023-08-24T15:44:36;24.70;99.90
23143;DHT22;11740;51.168;4.112;2023-08-24T15:47:03;24.80;99.90
23143;DHT22;11740;51.168;4.112;2023-08-24T15:49:30;25.00;99.90
23143;DHT22;11740;51.168;4.112;2023-08-24T15:51:57;25.20;99.90
23143;DHT22;11740;51.168;4.112;2023-08-24T15:54:24;25.20;1.00